Time;durP1;ratioP1;P1;durP2;ratioP2;P2;SDS_P1;SDS_P2;PMS_P1;PMS_P2;Temp;Humidity;BMP_temperature;BMP_pressure;BME280_temperature;BME280_humidity;BME280_pressure;Samples;Min_cycle;Max_cycle;Signal;HPM_P1;HPM_P2
2021/11/20 00:01:17;;;;;;;5.78;4.07;;;;;;;2.57;89.59;97186.00;5007162;28;20081;-58
2021/11/20 00:04:04;;;;;;;5.70;4.28;;;;;;;2.84;89.44;97209.06;5006301;28;20053;-58
2021/11/20 00:06:53;;;;;;;5.68;4.47;;;;;;;2.55;88.87;97137.53;5006455;28;20041;-58
2021/11/20 00:09:39;;;;;;;5.95;4.07;;;;;;;2.58;89.40;97162.16;5006533;28;20033;-59
2021/11/20 00:12:28;;;;;;;6.28;4.78;;;;;;;2.87;89.91;97188.53;5007029;28;20049;-58
2021/11/20 00:15:19;;;;;;;5.28;4.32;;;;;;;2.63;89.39;97128.78;5006173;28;20342;-58
2021/11/20 00:18:07;;;;;;;5.97;4.22;;;;;;;2.59;89.30;97098.22;5002783;28;20042;-58
2021/11/20 00:20:58;;;;;;;5.28;4.32;;;;;;;2.78;89.76;97141.09;5006134;28;20034;-57
2021/11/20 00:23:51;;;;;;;5.18;4.13;;;;;;;2.92;89.29;97130.41;5005270;28;20374;-58
2021/11/20 00:26:37;;;;;;;5.57;4.13;;;;;;;2.99;89.06;97118.28;5004750;28;20105;-58
2021/11/20 00:29:37;;;;;;;4.72;3.80;;;;;;;3.02;88.88;97097.72;5006094;28;20038;-58
2021/11/20 00:32:27;;;;;;;6.07;3.97;;;;;;;2.98;88.83;97097.00;5006195;28;20223;-58
2021/11/20 00:35:16;;;;;;;4.68;4.07;;;;;;;2.69;89.36;97049.38;5004301;28;20231;-58
2021/11/20 00:38:05;;;;;;;5.70;4.10;;;;;;;3.01;88.86;97078.16;5005474;28;20068;-58
2021/11/20 00:41:01;;;;;;;4.72;3.58;;;;;;;2.93;89.20;97045.19;4988199;28;20066;-58
2021/11/20 00:43:49;;;;;;;4.70;3.50;;;;;;;3.01;88.71;97037.25;5009094;28;20315;-59
2021/11/20 00:46:36;;;;;;;5.00;3.92;;;;;;;2.97;88.86;97048.47;5003434;28;20068;-59
2021/11/20 00:49:22;;;;;;;4.40;3.60;;;;;;;3.06;88.98;97032.81;5005754;28;20034;-58
2021/11/20 00:52:08;;;;;;;5.28;4.05;;;;;;;3.05;89.44;97023.47;5005559;28;20022;-58
2021/11/20 00:54:54;;;;;;;4.63;3.97;;;;;;;3.16;88.34;97005.19;5006139;28;20034;-58
2021/11/20 00:57:41;;;;;;;5.80;3.70;;;;;;;3.20;88.79;96996.53;5006018;28;20311;-58
2021/11/20 01:00:34;;;;;;;5.07;3.83;;;;;;;3.19;88.48;96979.53;5005021;28;20026;-58
2021/11/20 01:03:24;;;;;;;5.25;3.88;;;;;;;3.08;87.62;96990.16;5005455;28;20023;-58
2021/11/20 01:06:11;;;;;;;5.40;3.35;;;;;;;2.99;88.53;96950.38;5004237;28;20102;-58
2021/11/20 01:08:58;;;;;;;4.85;3.50;;;;;;;3.07;87.97;96952.69;5005834;28;20038;-58
2021/11/20 01:11:51;;;;;;;4.68;3.00;;;;;;;3.07;88.38;96939.91;5006080;28;20036;-58
2021/11/20 01:14:39;;;;;;;3.88;3.00;;;;;;;2.93;87.81;96899.47;5003626;28;20133;-58
2021/11/20 01:17:27;;;;;;;4.35;3.25;;;;;;;2.92;88.43;96925.91;5005684;28;20089;-58
2021/11/20 01:20:13;;;;;;;3.33;3.03;;;;;;;2.99;88.31;96918.88;5005153;28;20335;-59
2021/11/20 01:23:00;;;;;;;3.45;3.08;;;;;;;2.97;88.30;96908.72;5006604;28;20038;-58
2021/11/20 01:25:47;;;;;;;3.28;2.70;;;;;;;2.74;88.69;96896.75;5005322;28;20315;-60
2021/11/20 01:28:35;;;;;;;4.10;3.08;;;;;;;2.82;88.72;96884.56;5005117;28;20042;-59
2021/11/20 01:31:25;;;;;;;4.32;3.20;;;;;;;2.86;88.16;96868.19;5004319;28;20323;-60
2021/11/20 01:34:12;;;;;;;3.50;3.13;;;;;;;2.97;88.31;96861.88;5004346;28;20061;-60
2021/11/20 01:37:00;;;;;;;3.85;3.03;;;;;;;2.92;87.79;96849.25;5003927;28;20323;-59
2021/11/20 01:39:47;;;;;;;4.05;3.08;;;;;;;2.90;87.95;96841.63;5004213;28;20046;-60
2021/11/20 01:42:33;;;;;;;3.03;2.53;;;;;;;2.92;88.18;96832.19;5004446;28;20038;-60
2021/11/20 01:45:34;;;;;;;3.10;2.60;;;;;;;2.62;88.54;96817.97;5004850;28;20219;-59
2021/11/20 01:48:57;;;;;;;2.78;2.58;;;;;;;2.36;89.37;96799.31;4990014;28;20043;-59
2021/11/20 01:51:57;;;;;;;4.10;2.72;;;;;;;2.48;89.39;96798.91;4993371;28;20037;-59
2021/11/20 01:54:50;;;;;;;4.95;3.22;;;;;;;2.55;89.64;96772.25;4993662;28;20033;-59
2021/11/20 01:57:53;;;;;;;3.38;2.63;;;;;;;2.19;89.27;96708.00;5004590;28;20031;-58
2021/11/20 02:00:38;;;;;;;;;;;;;;;2.35;89.65;96756.78;5004888;28;20073;-59
2021/11/20 02:03:47;;;;;;;3.35;3.05;;;;;;;2.35;89.79;96744.88;5005090;28;19920;-59
2021/11/20 02:06:37;;;;;;;4.28;2.88;;;;;;;2.33;90.29;96727.94;5003797;28;20064;-59
2021/11/20 02:09:37;;;;;;;4.03;3.17;;;;;;;2.45;89.69;96750.44;5004545;28;20381;-59
2021/11/20 02:12:27;;;;;;;3.67;3.17;;;;;;;2.39;90.06;96713.22;5002477;28;20026;-59
2021/11/20 02:15:20;;;;;;;4.10;3.42;;;;;;;2.13;90.16;96650.34;5004081;28;20030;-60
2021/11/20 02:18:08;;;;;;;3.85;3.17;;;;;;;2.43;90.50;96698.59;5003252;28;20034;-58
2021/11/20 02:21:12;;;;;;;4.18;3.25;;;;;;;2.45;90.09;96691.72;5003343;28;20037;-57
2021/11/20 02:23:57;;;;;;;6.38;3.25;;;;;;;2.44;90.01;96686.66;5002831;28;20242;-58
2021/11/20 02:26:43;;;;;;;3.83;3.33;;;;;;;2.64;90.24;96663.75;5003074;28;20048;-58
2021/11/20 02:29:30;;;;;;;3.30;3.00;;;;;;;2.56;89.81;96643.59;5003217;28;20053;-58
2021/11/20 02:32:22;;;;;;;3.50;3.20;;;;;;;2.66;89.81;96666.25;5004022;28;20327;-58
2021/11/20 02:35:09;;;;;;;3.88;3.20;;;;;;;2.50;89.77;96643.84;5003864;28;20483;-58
2021/11/20 02:37:56;;;;;;;3.97;3.20;;;;;;;2.60;89.89;96621.34;5002314;28;20101;-58
2021/11/20 02:40:43;;;;;;;4.05;2.88;;;;;;;2.45;89.30;96604.88;5002516;28;20254;-58
2021/11/20 02:43:34;;;;;;;3.80;3.17;;;;;;;2.24;89.90;96551.22;5003784;28;20041;-58
2021/11/20 02:46:23;;;;;;;3.85;2.72;;;;;;;2.66;89.14;96590.44;5003279;28;20034;-58
2021/11/20 02:49:11;;;;;;;3.08;2.78;;;;;;;2.69;89.43;96586.94;4997031;28;20145;-58
2021/11/20 02:52:05;;;;;;;4.65;2.83;;;;;;;2.64;89.73;96576.09;5003177;28;20030;-58
2021/11/20 02:54:51;;;;;;;3.30;2.70;;;;;;;2.42;89.29;96559.03;5003122;28;20034;-59
2021/11/20 02:57:40;;;;;;;4.18;2.33;;;;;;;2.17;88.90;96496.19;5003644;28;20022;-59
2021/11/20 03:00:26;;;;;;;3.00;2.55;;;;;;;2.72;89.39;96546.78;5003700;28;20018;-58
2021/11/20 03:03:12;;;;;;;3.40;2.58;;;;;;;2.68;88.98;96539.28;5003155;28;20065;-58
2021/11/20 03:05:58;;;;;;;2.67;2.40;;;;;;;2.30;88.92;96518.69;5003649;28;20034;-58
2021/11/20 03:08:44;;;;;;;2.33;2.10;;;;;;;2.39;89.45;96529.38;5003395;28;20200;-59
2021/11/20 03:11:31;;;;;;;2.70;2.28;;;;;;;2.26;89.43;96520.53;5003127;28;20034;-58
2021/11/20 03:14:18;;;;;;;2.45;1.80;;;;;;;2.42;89.35;96511.38;4999940;28;20331;-58
2021/11/20 03:17:06;;;;;;;2.40;2.10;;;;;;;1.83;89.29;96428.63;5002229;28;20073;-58
2021/11/20 03:19:52;;;;;;;2.20;2.00;;;;;;;2.39;88.70;96491.06;5002345;28;20027;-57
2021/11/20 03:22:49;;;;;;;2.47;2.22;;;;;;;2.15;89.16;96467.34;5002044;28;20038;-57
2021/11/20 03:25:35;;;;;;;2.63;2.30;;;;;;;2.39;88.81;96473.19;4998070;28;20030;-57
2021/11/20 03:28:21;;;;;;;2.78;2.42;;;;;;;2.19;89.34;96457.84;4993974;28;20026;-57
2021/11/20 03:31:07;;;;;;;2.70;2.25;;;;;;;2.23;88.98;96455.09;4988100;28;20034;-57
2021/11/20 03:33:53;;;;;;;2.97;2.30;;;;;;;2.13;89.29;96447.88;4988201;28;20033;-57
2021/11/20 03:36:39;;;;;;;3.17;2.58;;;;;;;2.20;89.31;96439.91;4989090;28;20097;-57
2021/11/20 03:39:26;;;;;;;4.10;2.95;;;;;;;2.00;89.95;96427.13;5002944;28;20228;-58
2021/11/20 03:42:12;;;;;;;3.08;2.42;;;;;;;2.18;89.70;96421.28;5003418;28;20072;-57
2021/11/20 03:44:58;;;;;;;4.22;3.03;;;;;;;2.00;90.10;96404.16;5002208;28;20093;-58
2021/11/20 03:47:44;;;;;;;4.25;3.20;;;;;;;2.05;89.83;96402.25;5000467;28;20331;-58
2021/11/20 03:50:31;;;;;;;3.67;3.10;;;;;;;2.04;89.70;96400.59;5002394;28;20097;-58
2021/11/20 03:53:17;;;;;;;4.80;3.50;;;;;;;1.98;90.32;96375.31;5001978;28;20109;-58
2021/11/20 03:56:04;;;;;;;5.18;3.78;;;;;;;2.12;90.07;96365.34;5002206;28;20335;-59
2021/11/20 03:58:50;;;;;;;4.35;3.63;;;;;;;2.03;89.89;96350.44;5002130;28;20084;-58
2021/11/20 04:01:36;;;;;;;9.13;5.32;;;;;;;1.83;90.15;96352.09;5002134;28;20312;-58
2021/11/20 04:04:23;;;;;;;6.10;4.60;;;;;;;2.09;90.19;96334.06;5002060;28;20307;-59
2021/11/20 04:07:09;;;;;;;6.70;4.78;;;;;;;2.12;90.18;96331.38;5002128;28;20030;-59
2021/11/20 04:09:55;;;;;;;8.23;5.10;;;;;;;2.19;89.40;96323.38;5002645;28;20065;-59
2021/11/20 04:12:41;;;;;;;9.68;5.63;;;;;;;1.94;90.18;96315.09;5002828;28;20271;-58
2021/11/20 04:15:27;;;;;;;9.93;5.30;;;;;;;1.87;90.45;96307.69;5004412;28;20065;-59
2021/11/20 04:18:14;;;;;;;7.57;5.68;;;;;;;1.93;90.53;96296.41;5005682;28;20050;-59
2021/11/20 04:21:00;;;;;;;8.05;6.30;;;;;;;1.84;90.43;96279.78;5004070;28;20038;-60
2021/11/20 04:23:47;;;;;;;12.40;8.52;;;;;;;2.03;90.67;96292.56;5004193;28;20188;-58
2021/11/20 04:26:33;;;;;;;8.15;6.03;;;;;;;2.13;90.15;96272.59;5002130;28;20063;-59
2021/11/20 04:29:20;;;;;;;8.68;6.10;;;;;;;2.05;89.57;96244.88;5003891;28;20329;-58
2021/11/20 04:32:06;;;;;;;9.75;5.47;;;;;;;1.88;90.13;96247.28;5005032;28;20334;-60
2021/11/20 04:34:52;;;;;;;7.90;5.47;;;;;;;1.97;90.62;96241.81;5005007;28;20037;-59
2021/11/20 04:37:38;;;;;;;5.82;4.70;;;;;;;2.04;90.03;96233.00;5004833;28;20033;-59
2021/11/20 04:40:25;;;;;;;5.32;3.95;;;;;;;1.84;90.69;96226.19;5003442;28;20417;-59
2021/11/20 04:43:11;;;;;;;5.32;4.13;;;;;;;2.13;90.68;96219.00;5005458;28;20053;-60
2021/11/20 04:45:58;;;;;;;4.57;3.38;;;;;;;2.09;89.85;96220.03;5003821;28;20383;-59
2021/11/20 04:48:44;;;;;;;4.45;3.53;;;;;;;1.83;90.62;96216.06;5004348;28;20030;-58
2021/11/20 04:51:30;;;;;;;4.45;3.60;;;;;;;2.18;90.25;96204.31;5004782;28;20275;-59
2021/11/20 04:54:16;;;;;;;5.70;2.92;;;;;;;2.05;90.39;96210.84;5004085;28;20022;-59
2021/11/20 04:57:03;;;;;;;5.88;3.33;;;;;;;2.17;89.96;96194.19;5003844;28;20034;-60
2021/11/20 04:59:49;;;;;;;3.88;3.30;;;;;;;1.93;90.68;96196.09;5004273;28;20256;-59
2021/11/20 05:02:35;;;;;;;5.43;3.28;;;;;;;1.95;90.60;96192.53;5004363;28;20027;-59
2021/11/20 05:05:21;;;;;;;3.67;3.00;;;;;;;2.17;90.33;96181.41;5004494;28;20037;-59
2021/11/20 05:08:08;;;;;;;3.30;3.00;;;;;;;2.17;89.93;96178.88;4999900;28;20102;-59
2021/11/20 05:10:54;;;;;;;4.43;2.70;;;;;;;1.86;90.80;96157.25;5004399;28;20946;-59
2021/11/20 05:13:41;;;;;;;3.65;2.70;;;;;;;2.14;90.39;96167.06;4988803;28;20038;-59
2021/11/20 05:16:27;;;;;;;4.93;3.05;;;;;;;2.23;89.89;96153.88;5005454;28;20031;-59
2021/11/20 05:19:13;;;;;;;4.38;3.13;;;;;;;2.06;90.03;96158.91;5004428;28;20216;-60
2021/11/20 05:21:59;;;;;;;4.22;3.10;;;;;;;2.16;90.07;96146.56;4990499;28;20026;-60
2021/11/20 05:24:45;;;;;;;5.13;3.60;;;;;;;2.06;89.85;96139.31;5004556;28;20030;-58
2021/11/20 05:27:31;;;;;;;3.65;2.67;;;;;;;2.06;90.27;96133.41;5003697;28;20405;-58
2021/11/20 05:30:18;;;;;;;3.50;3.20;;;;;;;2.15;89.79;96134.69;5004868;28;20026;-58
2021/11/20 05:33:09;;;;;;;4.88;3.13;;;;;;;2.05;90.20;96130.03;5004943;28;20093;-59
2021/11/20 05:35:55;;;;;;;4.38;3.05;;;;;;;2.32;90.20;96123.72;5004816;28;20030;-60
2021/11/20 05:38:42;;;;;;;3.90;3.05;;;;;;;2.37;89.41;96121.78;5004235;28;20231;-59
2021/11/20 05:41:29;;;;;;;5.75;3.20;;;;;;;2.28;88.93;96122.19;5004243;28;20030;-58
2021/11/20 05:44:15;;;;;;;5.03;3.55;;;;;;;2.27;89.22;96110.31;5004062;28;20367;-59
2021/11/20 05:47:02;;;;;;;5.15;3.10;;;;;;;2.42;89.22;96107.06;4996811;28;20031;-60
2021/11/20 05:49:48;;;;;;;5.72;3.88;;;;;;;2.42;89.08;96094.28;4996167;28;20038;-59
2021/11/20 05:52:34;;;;;;;5.40;3.47;;;;;;;2.36;88.95;96094.59;5004601;28;20251;-59
2021/11/20 05:55:25;;;;;;;3.85;3.42;;;;;;;2.40;89.28;96096.91;5003735;28;20029;-59
2021/11/20 05:58:11;;;;;;;4.28;3.55;;;;;;;2.53;89.38;96089.50;5003456;28;20027;-59
2021/11/20 06:01:01;;;;;;;5.07;3.83;;;;;;;1.99;89.20;96020.56;5004356;28;20278;-59
2021/11/20 06:03:47;;;;;;;6.82;4.18;;;;;;;2.36;89.61;96079.28;5003617;28;20362;-59
2021/11/20 06:06:33;;;;;;;6.47;4.35;;;;;;;2.16;89.84;96072.56;5003565;28;20041;-59
2021/11/20 06:09:19;;;;;;;5.03;4.05;;;;;;;2.16;89.50;96024.88;5004140;28;20065;-59
2021/11/20 06:12:06;;;;;;;6.60;4.18;;;;;;;2.40;89.18;96065.47;5003601;28;20030;-59
2021/11/20 06:14:52;;;;;;;6.75;4.43;;;;;;;2.17;89.39;96048.69;5002713;28;20030;-60
2021/11/20 06:17:39;;;;;;;5.75;4.32;;;;;;;2.32;90.07;96052.22;5002859;28;20098;-58
2021/11/20 06:20:26;;;;;;;7.15;4.35;;;;;;;2.50;89.66;96056.47;5003808;28;20046;-58
2021/11/20 06:23:12;;;;;;;5.07;3.88;;;;;;;2.58;89.16;96051.00;5002339;28;20263;-57
2021/11/20 06:25:59;;;;;;;6.80;4.30;;;;;;;2.61;88.97;96048.28;5001116;28;20033;-58
2021/11/20 06:28:46;;;;;;;7.10;4.40;;;;;;;2.65;88.53;96042.13;5004035;28;20030;-58
2021/11/20 06:31:33;;;;;;;6.70;4.75;;;;;;;2.60;88.95;96044.06;4984688;28;20026;-58
2021/11/20 06:34:20;;;;;;;8.55;4.70;;;;;;;2.62;88.69;96036.34;5002650;28;20327;-59
2021/11/20 06:37:06;;;;;;;6.40;4.60;;;;;;;2.70;88.48;96039.34;5002185;28;20045;-58
2021/11/20 06:39:52;;;;;;;8.27;4.93;;;;;;;2.80;88.39;96035.44;5001885;28;20077;-58
2021/11/20 06:42:38;;;;;;;6.97;4.60;;;;;;;2.81;87.72;96019.19;5003675;28;20034;-59
2021/11/20 06:45:30;;;;;;;5.78;4.70;;;;;;;2.52;88.13;95969.56;5003567;28;20094;-58
2021/11/20 06:48:17;;;;;;;6.30;4.53;;;;;;;2.88;87.60;96025.66;4992036;28;20038;-60
2021/11/20 06:51:05;;;;;;;7.13;5.20;;;;;;;2.85;87.56;96030.94;4988978;28;20033;-59
2021/11/20 06:53:51;;;;;;;6.47;4.93;;;;;;;2.91;87.67;96022.94;5003144;28;20038;-59
2021/11/20 06:56:46;;;;;;;6.85;4.93;;;;;;;2.92;86.81;96029.72;5003527;28;20027;-59
2021/11/20 07:02:32;;;;;;;7.40;4.88;;;;;;;2.59;86.91;95956.41;5002601;28;20038;-63
2021/11/20 07:05:20;;;;;;;8.50;5.38;;;;;;;2.94;86.91;96010.00;5003243;28;20110;-60
2021/11/20 07:08:08;;;;;;;7.55;5.50;;;;;;;2.86;86.39;96017.22;5003337;28;20033;-61
2021/11/20 07:10:55;;;;;;;8.60;5.20;;;;;;;2.55;86.62;95957.47;5002907;28;20057;-63
2021/11/20 07:13:42;;;;;;;9.10;5.03;;;;;;;2.93;87.04;95999.88;5001832;28;20022;-60
2021/11/20 07:16:29;;;;;;;8.30;5.50;;;;;;;3.01;86.92;96007.16;5002008;28;20030;-60
2021/11/20 07:19:15;;;;;;;7.80;5.35;;;;;;;3.03;87.46;96008.72;5000899;28;20053;-59
2021/11/20 07:22:01;;;;;;;8.15;5.38;;;;;;;3.11;87.36;96013.44;5002223;28;20042;-61
2021/11/20 07:24:47;;;;;;;7.65;5.03;;;;;;;3.11;86.78;96005.78;4999290;28;20346;-58
2021/11/20 07:27:34;;;;;;;8.65;5.53;;;;;;;3.15;87.12;96012.38;5002683;28;20380;-60
2021/11/20 07:30:21;;;;;;;8.35;5.85;;;;;;;3.16;86.39;96018.31;5001907;28;20049;-60
2021/11/20 07:33:09;;;;;;;8.85;5.70;;;;;;;3.24;86.50;96006.78;4999119;28;20037;-59
2021/11/20 07:35:58;;;;;;;10.00;6.03;;;;;;;2.91;86.62;95955.69;5001563;28;20034;-61
2021/11/20 07:38:48;;;;;;;9.82;5.68;;;;;;;2.98;87.12;95957.03;5001953;28;20054;-60
2021/11/20 07:41:35;;;;;;;10.70;6.10;;;;;;;3.39;86.54;96012.00;5001762;28;20346;-61
2021/11/20 07:44:21;;;;;;;10.80;6.88;;;;;;;3.41;87.04;96025.53;5002600;28;20026;-62
2021/11/20 07:47:08;;;;;;;10.75;5.88;;;;;;;3.38;86.31;96016.28;4996325;28;20039;-61
2021/11/20 07:49:53;;;;;;;6.80;5.60;;;;;;;3.42;86.35;96019.50;5002246;28;20045;-60
2021/11/20 07:52:39;;;;;;;9.38;6.25;;;;;;;3.45;86.33;96022.75;5005582;28;20061;-60
2021/11/20 07:55:25;;;;;;;7.25;5.35;;;;;;;3.48;86.67;96020.91;5005777;28;20030;-63
2021/11/20 07:58:12;;;;;;;11.88;6.65;;;;;;;3.55;85.84;96017.97;5005505;28;20096;-61
2021/11/20 08:00:58;;;;;;;11.75;6.43;;;;;;;3.58;86.79;96025.47;5006570;28;20343;-60
2021/11/20 08:03:44;;;;;;;9.70;6.05;;;;;;;3.40;85.99;96027.25;4989146;28;20026;-62
2021/11/20 08:06:31;;;;;;;10.75;5.88;;;;;;;3.42;86.54;96009.28;4990644;28;20026;-62
2021/11/20 08:09:17;;;;;;;12.07;6.70;;;;;;;3.56;86.27;96027.31;4993577;28;20018;-60
2021/11/20 08:12:05;;;;;;;12.98;7.43;;;;;;;3.46;87.13;96044.00;5001220;28;20026;-61
2021/11/20 08:14:51;;;;;;;7.47;5.90;;;;;;;3.61;85.96;96029.63;5005114;28;20031;-60
2021/11/20 08:17:37;;;;;;;10.63;5.20;;;;;;;3.39;86.70;96017.97;5000257;28;20231;-60
2021/11/20 08:20:26;;;;;;;8.52;5.00;;;;;;;3.57;86.24;96043.47;5005048;28;20393;-60
2021/11/20 08:23:13;;;;;;;7.57;5.05;;;;;;;3.65;86.89;96027.69;5005887;28;20137;-61
2021/11/20 08:25:59;;;;;;;6.35;4.50;;;;;;;3.68;85.64;96040.31;5005630;28;20026;-60
2021/11/20 08:28:45;;;;;;;12.07;6.85;;;;;;;3.60;86.31;96023.66;5004296;28;20037;-61
2021/11/20 08:31:33;;;;;;;7.60;4.43;;;;;;;3.71;85.95;96046.13;5005862;28;20319;-61
2021/11/20 08:34:28;;;;;;;15.82;8.13;;;;;;;3.63;85.56;96045.69;5005866;28;20030;-60
2021/11/20 08:37:19;;;;;;;13.65;7.60;;;;;;;3.59;85.97;96047.59;5003752;28;20030;-62
2021/11/20 08:40:08;;;;;;;14.25;8.40;;;;;;;3.34;86.39;96003.75;5002593;28;20192;-62
2021/11/20 08:42:54;;;;;;;29.83;17.20;;;;;;;3.75;86.28;96057.84;5005176;28;20026;-62
2021/11/20 08:45:47;;;;;;;15.95;9.80;;;;;;;3.71;85.50;96063.22;5003953;28;20038;-61
2021/11/20 08:48:34;;;;;;;19.33;10.38;;;;;;;3.62;85.38;96047.44;5002202;28;20071;-60
2021/11/20 08:51:22;;;;;;;10.63;7.72;;;;;;;3.62;85.67;96062.78;5004847;28;20038;-60
2021/11/20 08:54:10;;;;;;;13.55;7.80;;;;;;;3.59;85.91;96059.56;5005564;28;20115;-60
2021/11/20 08:56:57;;;;;;;10.50;6.10;;;;;;;3.37;85.41;96024.88;5004833;28;20058;-59
2021/11/20 08:59:43;;;;;;;13.27;7.60;;;;;;;3.72;86.04;96077.63;5003466;28;20084;-59
2021/11/20 09:02:36;;;;;;;22.33;7.75;;;;;;;3.46;86.53;96082.38;5003919;28;20346;-59
2021/11/20 09:05:30;;;;;;;11.90;6.05;;;;;;;3.32;86.79;96069.47;5004660;28;20038;-59
2021/11/20 09:08:48;;;;;;;8.68;5.18;;;;;;;2.36;86.28;95961.84;5004597;28;20141;-59
2021/11/20 09:12:21;;;;;;;12.23;5.75;;;;;;;3.20;87.13;96097.31;4995675;28;20319;-59
2021/11/20 09:15:16;;;;;;;12.57;6.63;;;;;;;2.90;87.25;96049.38;5005888;28;20259;-59
2021/11/20 09:18:02;;;;;;;13.25;6.13;;;;;;;3.22;86.85;96105.75;5005048;28;20034;-60
2021/11/20 09:20:52;;;;;;;12.82;5.80;;;;;;;3.30;87.35;96102.81;5005063;28;20032;-59
2021/11/20 09:23:39;;;;;;;9.30;5.05;;;;;;;3.27;87.28;96115.75;5004707;28;20074;-59
2021/11/20 09:26:27;;;;;;;9.27;4.97;;;;;;;2.90;86.93;96067.28;5004380;28;20453;-60
2021/11/20 09:29:14;;;;;;;6.18;4.72;;;;;;;3.26;87.12;96129.44;5004244;28;20052;-60
2021/11/20 09:32:00;;;;;;;5.82;4.05;;;;;;;3.18;86.97;96127.25;5003997;28;20062;-58
2021/11/20 09:34:46;;;;;;;5.82;4.28;;;;;;;3.27;87.29;96138.75;5004922;28;20065;-58
2021/11/20 09:37:33;;;;;;;4.57;3.75;;;;;;;3.18;87.26;96149.44;5004785;28;20034;-59
2021/11/20 09:40:20;;;;;;;4.57;3.85;;;;;;;3.09;86.98;96155.81;5003337;28;20097;-59
2021/11/20 09:43:09;;;;;;;6.63;4.15;;;;;;;3.08;87.73;96152.44;4985830;28;20035;-59
2021/11/20 09:46:17;;;;;;;5.43;4.30;;;;;;;2.81;87.30;96103.53;5003117;28;20080;-59
2021/11/20 09:49:17;;;;;;;7.00;4.63;;;;;;;2.81;87.30;96120.56;4986702;28;20038;-59
2021/11/20 09:52:05;;;;;;;7.22;3.97;;;;;;;3.07;87.51;96181.47;5004063;28;20327;-59
2021/11/20 09:54:53;;;;;;;5.32;4.13;;;;;;;3.07;87.63;96181.47;5003504;28;20065;-58
2021/11/20 09:57:54;;;;;;;4.03;3.13;;;;;;;2.67;87.08;96132.28;5004230;28;20026;-59
2021/11/20 10:01:08;;;;;;;4.82;3.55;;;;;;;3.09;87.06;96192.47;5003355;28;20035;-59
2021/11/20 10:03:59;;;;;;;3.83;2.95;;;;;;;3.09;86.87;96202.69;5004295;28;20130;-59
2021/11/20 10:06:51;;;;;;;3.13;2.58;;;;;;;3.05;87.41;96215.66;5003498;28;20058;-59
2021/11/20 10:09:46;;;;;;;3.17;2.35;;;;;;;3.11;87.34;96217.94;5004139;28;20045;-58
2021/11/20 10:12:38;;;;;;;2.33;2.13;;;;;;;2.90;87.65;96241.03;5003465;28;20034;-59
2021/11/20 10:15:29;;;;;;;4.23;2.30;;;;;;;2.99;87.49;96241.53;5004180;28;20303;-60
2021/11/20 10:18:20;;;;;;;3.40;2.20;;;;;;;3.12;87.27;96229.81;5003017;28;20432;-59
2021/11/20 10:21:09;;;;;;;3.47;1.88;;;;;;;3.00;87.02;96240.63;5003937;28;20041;-60
2021/11/20 10:24:15;;;;;;;1.67;1.58;;;;;;;2.73;87.51;96182.25;5003375;28;20034;-59
2021/11/20 10:27:36;;;;;;;3.70;2.00;;;;;;;3.10;87.02;96246.97;4988432;28;20307;-59
2021/11/20 10:30:40;;;;;;;2.70;2.05;;;;;;;3.09;87.02;96263.19;4986259;28;20026;-58
2021/11/20 10:33:43;;;;;;;2.88;1.63;;;;;;;3.00;87.58;96266.19;5003799;28;20030;-60
2021/11/20 10:36:52;;;;;;;1.70;1.40;;;;;;;2.98;87.52;96280.75;5002787;28;20113;-58
2021/11/20 10:39:48;;;;;;;2.95;1.67;;;;;;;2.87;87.37;96261.63;5002566;28;20049;-59
2021/11/20 10:42:40;;;;;;;2.03;1.60;;;;;;;3.00;87.25;96296.88;5002859;28;20100;-59
2021/11/20 10:45:43;;;;;;;1.40;1.27;;;;;;;2.95;86.82;96289.41;5002380;28;20030;-60
2021/11/20 10:48:43;;;;;;;3.83;1.85;;;;;;;2.93;87.58;96316.75;5000705;28;20226;-58
2021/11/20 10:51:44;;;;;;;2.15;1.52;;;;;;;2.93;87.72;96312.47;4989242;28;20239;-60
2021/11/20 10:54:47;;;;;;;1.35;1.25;;;;;;;2.90;86.99;96316.91;4992808;28;20023;-60
2021/11/20 10:57:58;;;;;;;2.95;2.10;;;;;;;2.99;86.42;96329.25;5002851;28;20072;-60
2021/11/20 11:00:46;;;;;;;2.63;1.48;;;;;;;2.97;87.31;96340.47;5003154;28;20039;-60
2021/11/20 11:03:40;;;;;;;1.40;1.30;;;;;;;3.01;86.41;96347.09;5004467;28;20296;-60
2021/11/20 11:06:49;;;;;;;1.92;1.60;;;;;;;3.01;86.45;96364.97;5003575;28;20035;-60
2021/11/20 11:09:49;;;;;;;1.80;1.42;;;;;;;2.82;86.99;96363.25;5002464;28;20065;-59
2021/11/20 11:12:44;;;;;;;3.28;1.73;;;;;;;2.98;86.56;96360.84;5003548;28;20041;-59
2021/11/20 11:16:18;;;;;;;2.42;1.00;;;;;;;2.67;86.57;96328.16;4985853;28;20026;-58
2021/11/20 11:19:23;;;;;;;1.20;1.10;;;;;;;2.86;86.12;96374.97;4993075;28;20038;-59
2021/11/20 11:22:37;;;;;;;1.48;1.33;;;;;;;2.91;86.25;96396.03;5003290;28;20031;-59
2021/11/20 11:25:29;;;;;;;1.48;1.00;;;;;;;2.81;86.78;96415.25;5006369;28;20037;-59
2021/11/20 11:28:37;;;;;;;2.03;1.20;;;;;;;2.89;86.71;96423.41;5006462;28;20254;-59
2021/11/20 11:31:31;;;;;;;1.35;1.13;;;;;;;2.86;87.16;96426.06;5005255;28;20038;-59
2021/11/20 11:34:33;;;;;;;1.45;0.95;;;;;;;2.78;86.67;96422.19;4988104;28;20215;-58
2021/11/20 11:37:56;;;;;;;1.20;1.10;;;;;;;2.84;86.73;96430.44;5005462;28;20045;-57
2021/11/20 11:40:51;;;;;;;1.52;1.10;;;;;;;2.52;86.55;96385.84;5006043;28;20034;-58
2021/11/20 11:44:01;;;;;;;1.27;1.05;;;;;;;2.59;86.71;96393.19;5006935;28;20022;-58
2021/11/20 11:47:18;;;;;;;1.23;0.80;;;;;;;2.56;86.80;96407.78;5006427;28;20030;-58
2021/11/20 11:50:07;;;;;;;1.65;1.10;;;;;;;2.92;86.90;96466.72;5004420;28;20053;-58
2021/11/20 11:53:23;;;;;;;2.72;1.08;;;;;;;2.84;87.10;96484.09;5005785;28;20030;-58
2021/11/20 11:56:23;;;;;;;2.25;1.00;;;;;;;2.41;87.11;96433.09;4992942;28;20331;-57
2021/11/20 11:59:27;;;;;;;2.17;1.10;;;;;;;2.84;87.10;96499.44;5006627;28;20018;-58
2021/11/20 12:02:24;;;;;;;2.88;1.60;;;;;;;2.39;87.38;96446.81;4996392;28;20386;-58
2021/11/20 12:05:40;;;;;;;1.48;1.30;;;;;;;2.71;87.23;96524.66;5005710;28;20038;-59
2021/11/20 12:08:38;;;;;;;2.80;1.50;;;;;;;2.82;87.21;96531.91;4998288;28;20031;-58
2021/11/20 12:11:27;;;;;;;3.63;1.17;;;;;;;2.76;87.50;96540.66;5007271;28;20042;-58
2021/11/20 12:14:13;;;;;;;1.52;1.15;;;;;;;2.76;86.64;96548.31;5006213;28;20134;-58
2021/11/20 12:17:05;;;;;;;3.63;1.10;;;;;;;2.31;87.69;96497.34;5002282;28;20038;-57
2021/11/20 12:20:15;;;;;;;2.13;1.30;;;;;;;2.72;87.19;96571.47;5003540;28;20039;-57
2021/11/20 12:23:24;;;;;;;1.95;1.10;;;;;;;2.72;88.28;96600.44;4989944;28;20065;-57
2021/11/20 12:26:30;;;;;;;2.20;1.23;;;;;;;2.63;87.15;96579.53;5004612;28;20026;-58
2021/11/20 12:29:54;;;;;;;1.75;1.60;;;;;;;2.69;87.87;96597.97;5006418;28;20215;-59
2021/11/20 12:32:53;;;;;;;3.78;1.85;;;;;;;2.69;87.91;96605.63;4919386;29;20052;-59
2021/11/20 12:36:12;;;;;;;6.30;1.83;;;;;;;2.36;87.86;96559.28;4961417;28;20340;-59
2021/11/20 12:39:15;;;;;;;2.70;1.42;;;;;;;2.40;86.71;96576.16;4950462;29;20050;-59
2021/11/20 12:42:36;;;;;;;4.22;2.00;;;;;;;2.67;87.73;96639.81;4949483;29;20023;-59
2021/11/20 12:45:25;;;;;;;2.30;1.92;;;;;;;2.67;87.79;96635.53;4927174;29;20100;-58
2021/11/20 12:48:34;;;;;;;1.67;1.40;;;;;;;2.73;87.41;96648.06;4962303;29;20039;-58
2021/11/20 12:51:47;;;;;;;2.58;1.58;;;;;;;2.68;86.97;96649.13;4963228;28;20041;-60
2021/11/20 12:54:49;;;;;;;1.90;1.60;;;;;;;2.71;87.67;96661.81;4961589;28;20039;-62
2021/11/20 12:57:41;;;;;;;2.58;1.60;;;;;;;2.71;87.63;96659.25;4938441;28;20059;-60
2021/11/20 13:00:33;;;;;;;2.72;1.52;;;;;;;2.40;86.75;96611.91;4962179;28;20027;-60
2021/11/20 13:03:31;;;;;;;2.50;1.45;;;;;;;2.74;87.43;96672.72;4962433;28;20067;-60
2021/11/20 13:06:24;;;;;;;1.52;1.42;;;;;;;2.60;87.11;96687.75;4964064;29;20047;-60
2021/11/20 13:09:23;;;;;;;1.63;1.52;;;;;;;2.65;87.14;96685.03;4969960;28;20038;-60
2021/11/20 13:12:21;;;;;;;1.70;1.58;;;;;;;2.35;87.08;96629.97;4983891;28;20050;-61
2021/11/20 13:15:38;;;;;;;3.85;2.35;;;;;;;2.68;87.69;96697.66;4984463;28;20324;-60
2021/11/20 13:18:34;;;;;;;1.75;1.25;;;;;;;2.66;86.84;96695.19;4985360;28;20098;-59
2021/11/20 13:21:25;;;;;;;1.10;0.90;;;;;;;2.63;86.47;96691.94;4985141;28;20035;-58
2021/11/20 13:24:17;;;;;;;1.58;1.20;;;;;;;2.45;87.55;96696.00;4978606;28;20038;-59
2021/11/20 13:27:03;;;;;;;2.13;1.10;;;;;;;2.67;87.25;96726.69;4972042;28;20031;-59
2021/11/20 13:29:49;;;;;;;2.85;1.13;;;;;;;2.63;87.50;96741.28;4983681;28;20042;-59
2021/11/20 13:32:35;;;;;;;2.50;1.13;;;;;;;2.67;87.42;96739.47;4985689;28;20033;-60
2021/11/20 13:35:25;;;;;;;0.93;0.90;;;;;;;2.71;86.95;96759.72;4985592;28;20027;-59
2021/11/20 13:38:16;;;;;;;2.58;1.50;;;;;;;2.69;87.00;96758.09;4985728;28;20073;-59
2021/11/20 13:41:04;;;;;;;1.90;1.10;;;;;;;2.66;87.03;96771.00;4983791;28;20231;-59